sensor_id;sensor_type;location;lat;lon;timestamp;pressure;altitude;pressure_sealevel;temperature;humidity
72558;BME280;60583;50.094;8.748;2023-03-16T00:00:14;101077.78;;;0.87;84.90
72558;BME280;60583;50.094;8.748;2023-03-16T00:02:41;101070.13;;;0.84;84.38
72558;BME280;60583;50.094;8.748;2023-03-16T00:05:08;101095.91;;;1.01;84.69
72558;BME280;60583;50.094;8.748;2023-03-16T00:07:34;101098.28;;;1.04;84.51
72558;BME280;60583;50.094;8.748;2023-03-16T00:10:00;101105.31;;;1.04;84.12
72558;BME280;60583;50.094;8.748;2023-03-16T00:12:25;101105.19;;;1.16;83.37
72558;BME280;60583;50.094;8.748;2023-03-16T00:14:51;101096.38;;;1.17;83.06
72558;BME280;60583;50.094;8.748;2023-03-16T00:17:18;101094.34;;;1.10;84.24
72558;BME280;60583;50.094;8.748;2023-03-16T00:19:51;101062.75;;;1.00;84.14
72558;BME280;60583;50.094;8.748;2023-03-16T00:22:23;101091.84;;;1.19;83.93
72558;BME280;60583;50.094;8.748;2023-03-16T00:24:50;101101.88;;;1.14;84.08
72558;BME280;60583;50.094;8.748;2023-03-16T00:27:16;101093.03;;;1.04;84.17
72558;BME280;60583;50.094;8.748;2023-03-16T00:29:43;101080.28;;;1.00;84.70
72558;BME280;60583;50.094;8.748;2023-03-16T00:32:23;101014.78;;;0.54;84.29
72558;BME280;60583;50.094;8.748;2023-03-16T00:34:48;101056.06;;;0.74;85.89
72558;BME280;60583;50.094;8.748;2023-03-16T00:37:18;101043.88;;;0.73;85.61
72558;BME280;60583;50.094;8.748;2023-03-16T00:39:45;101066.31;;;0.88;85.43
72558;BME280;60583;50.094;8.748;2023-03-16T00:42:14;101068.00;;;0.89;85.48
72558;BME280;60583;50.094;8.748;2023-03-16T00:44:40;101073.72;;;0.83;86.08
72558;BME280;60583;50.094;8.748;2023-03-16T00:47:09;101059.97;;;0.91;85.12
72558;BME280;60583;50.094;8.748;2023-03-16T00:49:39;101063.09;;;0.74;86.66
72558;BME280;60583;50.094;8.748;2023-03-16T00:52:08;101069.78;;;0.78;87.40
72558;BME280;60583;50.094;8.748;2023-03-16T00:54:34;101060.59;;;0.61;87.53
72558;BME280;60583;50.094;8.748;2023-03-16T00:57:01;101066.31;;;0.66;87.94
72558;BME280;60583;50.094;8.748;2023-03-16T00:59:27;100991.16;;;0.21;88.07
72558;BME280;60583;50.094;8.748;2023-03-16T01:01:54;101067.88;;;0.57;88.39
72558;BME280;60583;50.094;8.748;2023-03-16T01:04:20;101070.59;;;0.56;88.59
72558;BME280;60583;50.094;8.748;2023-03-16T01:06:46;101065.47;;;0.54;89.04
72558;BME280;60583;50.094;8.748;2023-03-16T01:09:12;101057.84;;;0.74;87.84
72558;BME280;60583;50.094;8.748;2023-03-16T01:11:39;101063.31;;;0.71;88.65
72558;BME280;60583;50.094;8.748;2023-03-16T01:14:08;101048.19;;;0.52;88.84
72558;BME280;60583;50.094;8.748;2023-03-16T01:16:34;101034.34;;;0.39;89.27
72558;BME280;60583;50.094;8.748;2023-03-16T01:18:59;101066.66;;;0.50;89.56
72558;BME280;60583;50.094;8.748;2023-03-16T01:21:26;101068.94;;;0.55;89.41
72558;BME280;60583;50.094;8.748;2023-03-16T01:23:52;101031.97;;;0.47;89.02
72558;BME280;60583;50.094;8.748;2023-03-16T01:26:19;101071.69;;;0.76;89.19
72558;BME280;60583;50.094;8.748;2023-03-16T01:28:45;101042.59;;;0.56;88.24
72558;BME280;60583;50.094;8.748;2023-03-16T01:31:12;101066.81;;;0.82;88.00
72558;BME280;60583;50.094;8.748;2023-03-16T01:33:39;101057.34;;;0.91;87.15
72558;BME280;60583;50.094;8.748;2023-03-16T01:36:08;101067.53;;;0.84;87.84
72558;BME280;60583;50.094;8.748;2023-03-16T01:38:34;101039.50;;;0.62;88.61
72558;BME280;60583;50.094;8.748;2023-03-16T01:41:00;101030.06;;;0.49;88.92
72558;BME280;60583;50.094;8.748;2023-03-16T01:43:28;101010.88;;;0.37;88.91
72558;BME280;60583;50.094;8.748;2023-03-16T01:46:22;101045.22;;;0.56;89.67
72558;BME280;60583;50.094;8.748;2023-03-16T01:48:59;101036.50;;;0.45;89.82
72558;BME280;60583;50.094;8.748;2023-03-16T01:51:39;101017.91;;;0.37;90.06
72558;BME280;60583;50.094;8.748;2023-03-16T01:56:51;101036.59;;;0.32;90.90
72558;BME280;60583;50.094;8.748;2023-03-16T01:59:22;101028.84;;;0.31;90.46
72558;BME280;60583;50.094;8.748;2023-03-16T02:01:50;101009.25;;;0.13;90.95
72558;BME280;60583;50.094;8.748;2023-03-16T02:04:34;101027.66;;;0.24;91.18
72558;BME280;60583;50.094;8.748;2023-03-16T02:07:02;101009.28;;;0.24;90.87
72558;BME280;60583;50.094;8.748;2023-03-16T02:09:29;101000.47;;;0.14;91.36
72558;BME280;60583;50.094;8.748;2023-03-16T02:11:57;101022.16;;;0.27;91.58
72558;BME280;60583;50.094;8.748;2023-03-16T02:14:23;101008.09;;;0.17;91.09
72558;BME280;60583;50.094;8.748;2023-03-16T02:16:49;101012.84;;;0.23;91.53
72558;BME280;60583;50.094;8.748;2023-03-16T02:19:28;100985.78;;;0.11;90.60
72558;BME280;60583;50.094;8.748;2023-03-16T02:22:05;101021.94;;;0.30;90.19
72558;BME280;60583;50.094;8.748;2023-03-16T02:24:31;101026.50;;;0.50;89.98
72558;BME280;60583;50.094;8.748;2023-03-16T02:27:00;101027.56;;;0.58;88.61
72558;BME280;60583;50.094;8.748;2023-03-16T02:32:23;101001.44;;;0.35;88.76
72558;BME280;60583;50.094;8.748;2023-03-16T02:34:49;101014.56;;;0.46;88.19
72558;BME280;60583;50.094;8.748;2023-03-16T02:37:15;101011.69;;;0.49;88.32
72558;BME280;60583;50.094;8.748;2023-03-16T02:39:40;100978.44;;;0.38;88.11
72558;BME280;60583;50.094;8.748;2023-03-16T02:42:13;100987.38;;;0.47;87.69
72558;BME280;60583;50.094;8.748;2023-03-16T02:44:41;100964.97;;;0.32;88.63
72558;BME280;60583;50.094;8.748;2023-03-16T02:47:14;100981.19;;;0.37;88.41
72558;BME280;60583;50.094;8.748;2023-03-16T02:49:44;100975.19;;;0.24;90.38
72558;BME280;60583;50.094;8.748;2023-03-16T02:52:10;100971.16;;;0.20;90.36
72558;BME280;60583;50.094;8.748;2023-03-16T02:54:36;100957.09;;;0.10;91.56
72558;BME280;60583;50.094;8.748;2023-03-16T02:57:02;100978.66;;;0.13;91.91
72558;BME280;60583;50.094;8.748;2023-03-16T02:59:29;100932.38;;;-0.21;91.78
72558;BME280;60583;50.094;8.748;2023-03-16T03:01:54;100970.19;;;0.10;91.95
72558;BME280;60583;50.094;8.748;2023-03-16T03:04:20;100950.88;;;-0.01;92.00
72558;BME280;60583;50.094;8.748;2023-03-16T03:06:48;100981.41;;;0.12;91.46
72558;BME280;60583;50.094;8.748;2023-03-16T03:09:13;100960.41;;;0.00;91.92
72558;BME280;60583;50.094;8.748;2023-03-16T03:11:39;100975.19;;;0.13;91.79
72558;BME280;60583;50.094;8.748;2023-03-16T03:14:05;100979.47;;;0.14;91.29
72558;BME280;60583;50.094;8.748;2023-03-16T03:16:30;100970.66;;;0.04;92.03
72558;BME280;60583;50.094;8.748;2023-03-16T03:18:57;100971.38;;;0.06;91.78
72558;BME280;60583;50.094;8.748;2023-03-16T03:21:22;100969.31;;;-0.02;91.50
72558;BME280;60583;50.094;8.748;2023-03-16T03:23:48;100909.84;;;-0.35;91.85
72558;BME280;60583;50.094;8.748;2023-03-16T03:26:15;100933.22;;;-0.21;91.91
72558;BME280;60583;50.094;8.748;2023-03-16T03:28:41;100932.03;;;-0.28;91.88
72558;BME280;60583;50.094;8.748;2023-03-16T03:31:13;100954.06;;;-0.19;91.59
72558;BME280;60583;50.094;8.748;2023-03-16T03:33:39;100976.97;;;-0.10;91.43
72558;BME280;60583;50.094;8.748;2023-03-16T03:36:04;100959.44;;;-0.21;91.91
72558;BME280;60583;50.094;8.748;2023-03-16T03:38:30;100973.59;;;-0.12;92.10
72558;BME280;60583;50.094;8.748;2023-03-16T03:40:55;100968.34;;;-0.12;92.16
72558;BME280;60583;50.094;8.748;2023-03-16T03:43:24;100961.19;;;-0.21;92.61
72558;BME280;60583;50.094;8.748;2023-03-16T03:45:55;100976.00;;;-0.09;92.14
72558;BME280;60583;50.094;8.748;2023-03-16T03:48:22;100969.91;;;-0.10;91.68
72558;BME280;60583;50.094;8.748;2023-03-16T03:50:47;100976.56;;;-0.17;92.84
72558;BME280;60583;50.094;8.748;2023-03-16T03:53:13;100979.94;;;0.08;90.68
72558;BME280;60583;50.094;8.748;2023-03-16T03:55:39;100973.03;;;0.18;89.91
72558;BME280;60583;50.094;8.748;2023-03-16T03:58:04;100959.22;;;0.05;89.76
72558;BME280;60583;50.094;8.748;2023-03-16T04:00:30;100912.22;;;-0.43;90.97
72558;BME280;60583;50.094;8.748;2023-03-16T04:02:55;100944.41;;;-0.19;91.41
72558;BME280;60583;50.094;8.748;2023-03-16T04:05:21;100977.19;;;-0.02;91.48
72558;BME280;60583;50.094;8.748;2023-03-16T04:07:46;100972.31;;;-0.07;91.93
72558;BME280;60583;50.094;8.748;2023-03-16T04:10:13;100943.56;;;-0.30;92.06
72558;BME280;60583;50.094;8.748;2023-03-16T04:12:38;100931.06;;;-0.27;91.38
72558;BME280;60583;50.094;8.748;2023-03-16T04:15:04;100978.38;;;0.05;91.17
72558;BME280;60583;50.094;8.748;2023-03-16T04:17:30;100937.63;;;-0.21;91.18
72558;BME280;60583;50.094;8.748;2023-03-16T04:19:55;100969.47;;;-0.04;91.34
72558;BME280;60583;50.094;8.748;2023-03-16T04:22:21;100968.25;;;0.00;90.92
72558;BME280;60583;50.094;8.748;2023-03-16T04:24:47;100946.94;;;-0.06;91.25
72558;BME280;60583;50.094;8.748;2023-03-16T04:27:13;100955.06;;;0.02;90.13
72558;BME280;60583;50.094;8.748;2023-03-16T04:29:38;100950.88;;;-0.01;90.14
72558;BME280;60583;50.094;8.748;2023-03-16T04:32:05;100946.22;;;0.03;90.86
72558;BME280;60583;50.094;8.748;2023-03-16T04:34:31;100938.50;;;0.02;90.98
72558;BME280;60583;50.094;8.748;2023-03-16T04:36:56;100960.44;;;0.12;90.74
72558;BME280;60583;50.094;8.748;2023-03-16T04:39:22;100968.25;;;0.00;90.44
72558;BME280;60583;50.094;8.748;2023-03-16T04:41:48;100938.47;;;-0.21;91.79
72558;BME280;60583;50.094;8.748;2023-03-16T04:44:13;100941.81;;;-0.08;91.96
72558;BME280;60583;50.094;8.748;2023-03-16T04:46:39;100945.03;;;-0.15;92.13
72558;BME280;60583;50.094;8.748;2023-03-16T04:49:05;100938.94;;;-0.16;91.62
72558;BME280;60583;50.094;8.748;2023-03-16T04:51:35;100886.34;;;-0.47;91.49
72558;BME280;60583;50.094;8.748;2023-03-16T04:54:03;100906.03;;;-0.42;92.26
72558;BME280;60583;50.094;8.748;2023-03-16T04:56:29;100942.50;;;-0.17;92.31
72558;BME280;60583;50.094;8.748;2023-03-16T04:58:54;100918.66;;;-0.36;92.21
72558;BME280;60583;50.094;8.748;2023-03-16T05:01:21;100872.53;;;-0.60;92.68
72558;BME280;60583;50.094;8.748;2023-03-16T05:03:47;100930.22;;;-0.27;92.85
72558;BME280;60583;50.094;8.748;2023-03-16T05:06:14;100929.38;;;-0.39;92.81
72558;BME280;60583;50.094;8.748;2023-03-16T05:08:41;100933.31;;;-0.33;93.20
72558;BME280;60583;50.094;8.748;2023-03-16T05:11:06;100916.41;;;-0.40;92.61
72558;BME280;60583;50.094;8.748;2023-03-16T05:13:32;100919.25;;;-0.32;92.21
72558;BME280;60583;50.094;8.748;2023-03-16T05:15:58;100947.66;;;-0.15;92.97
72558;BME280;60583;50.094;8.748;2023-03-16T05:18:23;100886.72;;;-0.52;92.25
72558;BME280;60583;50.094;8.748;2023-03-16T05:20:53;100920.84;;;-0.19;92.10
72558;BME280;60583;50.094;8.748;2023-03-16T05:23:21;100923.09;;;-0.14;92.27
72558;BME280;60583;50.094;8.748;2023-03-16T05:25:47;100912.50;;;-0.24;92.06
72558;BME280;60583;50.094;8.748;2023-03-16T05:28:13;100929.19;;;-0.14;92.65
72558;BME280;60583;50.094;8.748;2023-03-16T05:30:39;100910.22;;;-0.28;92.72
72558;BME280;60583;50.094;8.748;2023-03-16T05:33:06;100883.38;;;-0.54;92.71
72558;BME280;60583;50.094;8.748;2023-03-16T05:35:32;100939.03;;;-0.17;93.01
72558;BME280;60583;50.094;8.748;2023-03-16T05:37:57;100943.34;;;-0.16;92.20
72558;BME280;60583;50.094;8.748;2023-03-16T05:40:23;100933.44;;;-0.24;93.30
72558;BME280;60583;50.094;8.748;2023-03-16T05:42:53;100943.22;;;-0.15;92.99
72558;BME280;60583;50.094;8.748;2023-03-16T05:45:20;100880.19;;;-0.46;93.34
72558;BME280;60583;50.094;8.748;2023-03-16T05:47:45;100948.25;;;-0.01;92.96
72558;BME280;60583;50.094;8.748;2023-03-16T05:50:13;100934.91;;;0.03;92.99
72558;BME280;60583;50.094;8.748;2023-03-16T05:52:39;100878.66;;;-0.27;93.48
72558;BME280;60583;50.094;8.748;2023-03-16T05:55:06;100904.91;;;0.07;92.63
72558;BME280;60583;50.094;8.748;2023-03-16T05:57:32;100919.53;;;0.20;92.82
72558;BME280;60583;50.094;8.748;2023-03-16T05:59:59;100929.81;;;0.34;92.25
72558;BME280;60583;50.094;8.748;2023-03-16T06:02:26;100852.72;;;0.04;91.64
72558;BME280;60583;50.094;8.748;2023-03-16T06:04:52;100926.22;;;0.46;91.38
72558;BME280;60583;50.094;8.748;2023-03-16T06:07:17;100922.28;;;0.52;91.59
72558;BME280;60583;50.094;8.748;2023-03-16T06:09:43;100923.34;;;0.49;91.93
72558;BME280;60583;50.094;8.748;2023-03-16T06:12:09;100920.59;;;0.51;92.62
72558;BME280;60583;50.094;8.748;2023-03-16T06:14:35;100864.16;;;0.25;92.03
72558;BME280;60583;50.094;8.748;2023-03-16T06:17:00;100919.63;;;0.63;91.68
72558;BME280;60583;50.094;8.748;2023-03-16T06:19:26;100918.19;;;0.70;90.92
72558;BME280;60583;50.094;8.748;2023-03-16T06:21:51;100892.91;;;0.58;90.61
72558;BME280;60583;50.094;8.748;2023-03-16T06:24:17;100915.28;;;0.84;90.69
72558;BME280;60583;50.094;8.748;2023-03-16T06:26:42;100928.97;;;0.99;89.76
72558;BME280;60583;50.094;8.748;2023-03-16T06:29:07;100931.44;;;1.11;90.26
72558;BME280;60583;50.094;8.748;2023-03-16T06:31:33;100908.84;;;1.20;89.45
72558;BME280;60583;50.094;8.748;2023-03-16T06:33:59;100925.72;;;1.38;88.37
72558;BME280;60583;50.094;8.748;2023-03-16T06:36:25;100924.31;;;1.55;87.56
72558;BME280;60583;50.094;8.748;2023-03-16T06:38:51;100921.84;;;1.53;87.15
72558;BME280;60583;50.094;8.748;2023-03-16T06:41:16;100891.94;;;1.34;86.88
72558;BME280;60583;50.094;8.748;2023-03-16T06:43:42;100942.66;;;1.66;86.92
72558;BME280;60583;50.094;8.748;2023-03-16T06:46:07;100942.34;;;1.80;86.73
72558;BME280;60583;50.094;8.748;2023-03-16T06:48:33;100936.94;;;1.81;86.21
72558;BME280;60583;50.094;8.748;2023-03-16T06:50:58;100930.91;;;1.90;85.86
72558;BME280;60583;50.094;8.748;2023-03-16T06:53:24;100937.69;;;2.14;85.24
72558;BME280;60583;50.094;8.748;2023-03-16T06:55:50;100873.47;;;1.86;84.37
72558;BME280;60583;50.094;8.748;2023-03-16T06:58:15;100866.63;;;2.04;83.91
72558;BME280;60583;50.094;8.748;2023-03-16T07:00:41;100941.50;;;2.70;82.91
72558;BME280;60583;50.094;8.748;2023-03-16T07:03:07;100920.75;;;2.86;82.17
72558;BME280;60583;50.094;8.748;2023-03-16T07:05:32;100936.84;;;3.02;81.31
72558;BME280;60583;50.094;8.748;2023-03-16T07:07:58;100938.84;;;3.29;80.66
72558;BME280;60583;50.094;8.748;2023-03-16T07:10:23;100929.41;;;3.36;79.72
72558;BME280;60583;50.094;8.748;2023-03-16T07:12:50;100934.66;;;3.65;78.84
72558;BME280;60583;50.094;8.748;2023-03-16T07:15:16;100927.03;;;3.62;78.02
72558;BME280;60583;50.094;8.748;2023-03-16T07:17:42;100938.53;;;3.80;77.83
72558;BME280;60583;50.094;8.748;2023-03-16T07:20:08;100930.06;;;3.76;77.29
72558;BME280;60583;50.094;8.748;2023-03-16T07:22:36;100938.78;;;3.86;76.49
72558;BME280;60583;50.094;8.748;2023-03-16T07:25:02;100927.66;;;3.83;76.78
72558;BME280;60583;50.094;8.748;2023-03-16T07:27:28;100933.78;;;3.83;76.27
72558;BME280;60583;50.094;8.748;2023-03-16T07:29:54;100937.69;;;3.79;76.97
72558;BME280;60583;50.094;8.748;2023-03-16T07:32:20;100948.59;;;4.04;76.33
72558;BME280;60583;50.094;8.748;2023-03-16T07:34:46;100950.38;;;4.22;76.29
72558;BME280;60583;50.094;8.748;2023-03-16T07:37:12;100936.44;;;4.30;75.19
72558;BME280;60583;50.094;8.748;2023-03-16T07:39:38;100947.56;;;4.24;75.43
72558;BME280;60583;50.094;8.748;2023-03-16T07:42:03;100938.72;;;4.15;74.51
72558;BME280;60583;50.094;8.748;2023-03-16T07:44:29;100920.38;;;4.14;74.14
72558;BME280;60583;50.094;8.748;2023-03-16T07:46:55;100961.34;;;4.55;74.19
72558;BME280;60583;50.094;8.748;2023-03-16T07:49:21;100925.50;;;4.52;73.52
72558;BME280;60583;50.094;8.748;2023-03-16T07:51:47;100940.13;;;4.74;72.93
72558;BME280;60583;50.094;8.748;2023-03-16T07:54:13;100934.41;;;4.78;72.26
72558;BME280;60583;50.094;8.748;2023-03-16T07:56:39;100890.38;;;4.69;71.70
72558;BME280;60583;50.094;8.748;2023-03-16T07:59:06;100909.66;;;4.79;71.75
72558;BME280;60583;50.094;8.748;2023-03-16T08:01:31;100935.97;;;4.98;71.81
72558;BME280;60583;50.094;8.748;2023-03-16T08:03:59;100916.47;;;5.17;71.63
72558;BME280;60583;50.094;8.748;2023-03-16T08:06:26;100877.03;;;5.24;70.26
72558;BME280;60583;50.094;8.748;2023-03-16T08:08:51;100900.41;;;5.71;69.27
72558;BME280;60583;50.094;8.748;2023-03-16T08:11:23;100925.88;;;5.90;68.21
72558;BME280;60583;50.094;8.748;2023-03-16T08:13:49;100929.00;;;6.11;68.06
72558;BME280;60583;50.094;8.748;2023-03-16T08:16:22;100919.50;;;6.26;67.07
72558;BME280;60583;50.094;8.748;2023-03-16T08:18:48;100908.53;;;6.21;66.35
72558;BME280;60583;50.094;8.748;2023-03-16T08:21:15;100921.91;;;6.20;67.49
72558;BME280;60583;50.094;8.748;2023-03-16T08:23:44;100915.72;;;6.03;67.23
72558;BME280;60583;50.094;8.748;2023-03-16T08:26:21;100917.09;;;6.15;67.85
72558;BME280;60583;50.094;8.748;2023-03-16T08:28:50;100929.34;;;6.50;65.92
72558;BME280;60583;50.094;8.748;2023-03-16T08:31:17;100887.97;;;6.57;65.91
72558;BME280;60583;50.094;8.748;2023-03-16T08:33:44;100903.31;;;6.79;65.28
72558;BME280;60583;50.094;8.748;2023-03-16T08:36:13;100903.19;;;7.05;64.38
72558;BME280;60583;50.094;8.748;2023-03-16T08:38:40;100896.56;;;7.09;64.50
72558;BME280;60583;50.094;8.748;2023-03-16T08:41:06;100887.97;;;7.07;63.96
72558;BME280;60583;50.094;8.748;2023-03-16T08:43:32;100882.16;;;7.03;63.63
72558;BME280;60583;50.094;8.748;2023-03-16T08:45:58;100892.78;;;7.12;63.54
72558;BME280;60583;50.094;8.748;2023-03-16T08:48:24;100892.44;;;7.15;64.31
72558;BME280;60583;50.094;8.748;2023-03-16T08:50:50;100885.81;;;7.19;63.36
72558;BME280;60583;50.094;8.748;2023-03-16T08:53:16;100886.00;;;7.17;63.89
72558;BME280;60583;50.094;8.748;2023-03-16T08:55:41;100898.25;;;7.66;63.08
72558;BME280;60583;50.094;8.748;2023-03-16T08:58:08;100904.22;;;7.28;62.71
72558;BME280;60583;50.094;8.748;2023-03-16T09:00:34;100860.13;;;7.35;61.92
72558;BME280;60583;50.094;8.748;2023-03-16T09:03:00;100898.22;;;7.91;61.67
72558;BME280;60583;50.094;8.748;2023-03-16T09:05:27;100903.16;;;8.10;61.25
72558;BME280;60583;50.094;8.748;2023-03-16T09:07:53;100886.72;;;8.14;60.15
72558;BME280;60583;50.094;8.748;2023-03-16T09:10:19;100886.22;;;8.27;59.96
72558;BME280;60583;50.094;8.748;2023-03-16T09:12:51;100878.84;;;8.45;59.98
72558;BME280;60583;50.094;8.748;2023-03-16T09:15:18;100890.41;;;8.60;59.60
72558;BME280;60583;50.094;8.748;2023-03-16T09:17:47;100886.56;;;8.93;58.15
72558;BME280;60583;50.094;8.748;2023-03-16T09:20:14;100880.13;;;8.88;57.81
72558;BME280;60583;50.094;8.748;2023-03-16T09:22:41;100874.63;;;9.35;56.99
72558;BME280;60583;50.094;8.748;2023-03-16T09:25:08;100872.81;;;9.35;55.98
72558;BME280;60583;50.094;8.748;2023-03-16T09:27:36;100884.97;;;9.52;56.18
72558;BME280;60583;50.094;8.748;2023-03-16T09:30:05;100880.88;;;9.42;56.43
72558;BME280;60583;50.094;8.748;2023-03-16T09:32:32;100876.50;;;9.72;57.06
72558;BME280;60583;50.094;8.748;2023-03-16T09:34:58;100861.38;;;10.01;53.43
72558;BME280;60583;50.094;8.748;2023-03-16T09:37:24;100896.50;;;10.19;52.18
72558;BME280;60583;50.094;8.748;2023-03-16T09:39:51;100886.13;;;10.24;51.92
72558;BME280;60583;50.094;8.748;2023-03-16T09:42:23;100871.41;;;10.29;51.64
72558;BME280;60583;50.094;8.748;2023-03-16T09:45:17;100865.09;;;9.92;52.87
72558;BME280;60583;50.094;8.748;2023-03-16T09:47:46;100834.06;;;9.85;52.31
72558;BME280;60583;50.094;8.748;2023-03-16T09:50:20;100807.53;;;10.06;51.91
72558;BME280;60583;50.094;8.748;2023-03-16T09:52:59;100872.94;;;9.94;53.03
72558;BME280;60583;50.094;8.748;2023-03-16T09:55:30;100834.88;;;9.85;52.36
72558;BME280;60583;50.094;8.748;2023-03-16T09:57:58;100852.66;;;10.37;52.59
72558;BME280;60583;50.094;8.748;2023-03-16T10:03:00;100872.72;;;10.68;50.52
72558;BME280;60583;50.094;8.748;2023-03-16T10:05:30;100864.19;;;11.58;49.07
72558;BME280;60583;50.094;8.748;2023-03-16T10:08:18;100855.22;;;12.27;46.50
72558;BME280;60583;50.094;8.748;2023-03-16T10:14:12;100856.84;;;11.17;49.01
72558;BME280;60583;50.094;8.748;2023-03-16T10:16:53;100857.53;;;11.05;49.52
72558;BME280;60583;50.094;8.748;2023-03-16T10:19:38;100856.56;;;11.33;48.67
72558;BME280;60583;50.094;8.748;2023-03-16T10:22:24;100853.66;;;11.49;47.83
72558;BME280;60583;50.094;8.748;2023-03-16T10:27:40;100850.91;;;12.73;45.86
72558;BME280;60583;50.094;8.748;2023-03-16T10:30:23;100858.06;;;13.47;43.90
72558;BME280;60583;50.094;8.748;2023-03-16T10:32:50;100841.97;;;13.73;42.86
72558;BME280;60583;50.094;8.748;2023-03-16T10:37:45;100812.25;;;12.96;44.08
72558;BME280;60583;50.094;8.748;2023-03-16T10:40:11;100828.38;;;13.15;44.30
72558;BME280;60583;50.094;8.748;2023-03-16T10:42:37;100835.34;;;13.88;43.25
72558;BME280;60583;50.094;8.748;2023-03-16T10:45:04;100837.59;;;13.98;43.68
72558;BME280;60583;50.094;8.748;2023-03-16T10:47:31;100843.41;;;13.16;44.20
72558;BME280;60583;50.094;8.748;2023-03-16T10:49:57;100823.59;;;12.37;45.42
72558;BME280;60583;50.094;8.748;2023-03-16T10:52:37;100827.88;;;12.92;45.60
72558;BME280;60583;50.094;8.748;2023-03-16T10:55:10;100804.84;;;13.70;43.70
72558;BME280;60583;50.094;8.748;2023-03-16T10:57:42;100833.63;;;14.27;41.90
72558;BME280;60583;50.094;8.748;2023-03-16T11:02:47;100749.25;;;15.48;38.86
72558;BME280;60583;50.094;8.748;2023-03-16T11:08:14;100826.09;;;16.71;37.72
72558;BME280;60583;50.094;8.748;2023-03-16T11:10:44;100821.47;;;16.23;37.70
72558;BME280;60583;50.094;8.748;2023-03-16T11:13:14;100823.06;;;17.61;35.36
72558;BME280;60583;50.094;8.748;2023-03-16T11:15:59;100813.34;;;17.72;35.17
72558;BME280;60583;50.094;8.748;2023-03-16T11:18:39;100822.66;;;17.46;35.22
72558;BME280;60583;50.094;8.748;2023-03-16T11:21:29;100819.84;;;18.22;33.77
72558;BME280;60583;50.094;8.748;2023-03-16T11:24:01;100795.63;;;17.64;34.05
72558;BME280;60583;50.094;8.748;2023-03-16T11:26:32;100780.97;;;17.72;34.41
72558;BME280;60583;50.094;8.748;2023-03-16T11:29:03;100790.44;;;17.86;34.60
72558;BME280;60583;50.094;8.748;2023-03-16T11:31:41;100760.28;;;17.31;34.26
72558;BME280;60583;50.094;8.748;2023-03-16T11:34:32;100786.03;;;17.27;35.45
72558;BME280;60583;50.094;8.748;2023-03-16T11:37:13;100788.88;;;17.32;35.08
72558;BME280;60583;50.094;8.748;2023-03-16T11:43:01;100795.19;;;17.26;35.47
72558;BME280;60583;50.094;8.748;2023-03-16T11:45:35;100777.16;;;17.50;35.11
72558;BME280;60583;50.094;8.748;2023-03-16T11:48:21;100744.19;;;17.01;35.98
72558;BME280;60583;50.094;8.748;2023-03-16T11:51:00;100766.28;;;17.79;35.09
72558;BME280;60583;50.094;8.748;2023-03-16T11:53:51;100771.25;;;18.90;33.31
72558;BME280;60583;50.094;8.748;2023-03-16T11:56:32;100771.56;;;19.77;32.44
72558;BME280;60583;50.094;8.748;2023-03-16T12:14:42;100727.00;;;17.14;35.87
72558;BME280;60583;50.094;8.748;2023-03-16T12:17:18;100746.56;;;15.84;38.75
72558;BME280;60583;50.094;8.748;2023-03-16T12:19:49;100756.06;;;14.63;41.19
72558;BME280;60583;50.094;8.748;2023-03-16T12:22:27;100737.81;;;14.40;42.00
72558;BME280;60583;50.094;8.748;2023-03-16T12:24:53;100743.75;;;14.04;43.16
72558;BME280;60583;50.094;8.748;2023-03-16T12:27:23;100740.38;;;13.32;44.51
72558;BME280;60583;50.094;8.748;2023-03-16T12:30:01;100718.78;;;13.07;45.52
72558;BME280;60583;50.094;8.748;2023-03-16T12:32:42;100714.22;;;12.81;45.57
72558;BME280;60583;50.094;8.748;2023-03-16T12:35:26;100728.53;;;12.35;47.13
72558;BME280;60583;50.094;8.748;2023-03-16T12:38:42;100734.38;;;12.77;46.36
72558;BME280;60583;50.094;8.748;2023-03-16T12:48:56;100710.28;;;13.56;45.27
72558;BME280;60583;50.094;8.748;2023-03-16T12:51:36;100713.22;;;13.28;46.32
72558;BME280;60583;50.094;8.748;2023-03-16T12:54:03;100709.31;;;13.31;47.21
72558;BME280;60583;50.094;8.748;2023-03-16T12:56:32;100718.34;;;12.97;47.44
72558;BME280;60583;50.094;8.748;2023-03-16T12:59:03;100708.66;;;12.90;46.77
72558;BME280;60583;50.094;8.748;2023-03-16T13:01:37;100702.28;;;12.77;47.39
72558;BME280;60583;50.094;8.748;2023-03-16T13:04:22;100702.28;;;12.91;48.05
72558;BME280;60583;50.094;8.748;2023-03-16T13:07:03;100691.72;;;14.81;43.58
72558;BME280;60583;50.094;8.748;2023-03-16T13:09:29;100651.28;;;14.76;42.64
72558;BME280;60583;50.094;8.748;2023-03-16T13:11:57;100677.84;;;14.22;44.22
72558;BME280;60583;50.094;8.748;2023-03-16T13:14:41;100664.41;;;12.94;47.08
72558;BME280;60583;50.094;8.748;2023-03-16T13:22:48;100691.97;;;11.53;51.61
72558;BME280;60583;50.094;8.748;2023-03-16T13:27:54;100676.75;;;11.47;51.89
72558;BME280;60583;50.094;8.748;2023-03-16T13:30:30;100662.75;;;11.45;51.22
72558;BME280;60583;50.094;8.748;2023-03-16T13:33:04;100661.13;;;11.44;52.08
72558;BME280;60583;50.094;8.748;2023-03-16T13:35:36;100658.72;;;11.56;52.59
72558;BME280;60583;50.094;8.748;2023-03-16T13:38:05;100651.75;;;11.62;51.85
72558;BME280;60583;50.094;8.748;2023-03-16T13:40:31;100650.81;;;11.69;51.56
72558;BME280;60583;50.094;8.748;2023-03-16T13:42:57;100650.91;;;11.95;50.88
72558;BME280;60583;50.094;8.748;2023-03-16T13:45:31;100666.22;;;11.74;52.04
72558;BME280;60583;50.094;8.748;2023-03-16T13:47:59;100656.31;;;11.68;52.37
72558;BME280;60583;50.094;8.748;2023-03-16T13:50:25;100651.19;;;11.32;53.40
72558;BME280;60583;50.094;8.748;2023-03-16T13:52:59;100644.50;;;11.42;52.75
72558;BME280;60583;50.094;8.748;2023-03-16T13:55:34;100635.78;;;11.27;52.41
72558;BME280;60583;50.094;8.748;2023-03-16T13:58:01;100649.06;;;11.55;52.45
72558;BME280;60583;50.094;8.748;2023-03-16T14:00:33;100652.75;;;11.54;53.80